createdAt,value
2023-04-14T00:03:23.405Z,100271.34
2023-04-14T00:08:25.074Z,100275.88
2023-04-14T00:13:26.622Z,100269.19
2023-04-14T00:18:28.323Z,100269.16
2023-04-14T00:23:29.881Z,100279.19
2023-04-14T00:28:31.398Z,100286.13
2023-04-14T00:33:33.084Z,100292.97
2023-04-14T00:38:36.398Z,100287.38
2023-04-14T00:43:38.058Z,100296.00
2023-04-14T00:48:40.149Z,100314.41
2023-04-14T00:53:42.519Z,100318.94
2023-04-14T00:58:44.696Z,100326.00
2023-04-14T01:03:46.559Z,100326.63
2023-04-14T01:08:51.377Z,100320.25
2023-04-14T01:13:59.424Z,100320.84
2023-04-14T01:19:16.595Z,100320.34
2023-04-14T01:24:47.352Z,100329.28
2023-04-14T01:30:00.227Z,100335.09
2023-04-14T01:35:13.102Z,100337.44
2023-04-14T01:40:17.108Z,100333.25
2023-04-14T01:45:24.408Z,100325.09
2023-04-14T01:50:28.465Z,100329.69
2023-04-14T01:55:33.240Z,100331.97
2023-04-14T02:00:36.173Z,100331.47
2023-04-14T02:05:40.066Z,100339.22
2023-04-14T02:10:45.801Z,100332.47
2023-04-14T02:15:50.946Z,100335.28
2023-04-14T02:20:56.112Z,100338.03
2023-04-14T02:26:02.598Z,100330.75
2023-04-14T02:31:11.450Z,100338.13
2023-04-14T02:36:19.180Z,100334.75
2023-04-14T02:41:25.403Z,100331.81
2023-04-14T02:46:31.780Z,100324.44
2023-04-14T02:51:36.392Z,100325.41
2023-04-14T02:56:38.697Z,100329.66
2023-04-14T03:01:41.853Z,100346.91
2023-04-14T03:06:44.522Z,100355.00
2023-04-14T03:11:46.696Z,100354.44
2023-04-14T03:16:53.537Z,100346.22
2023-04-14T03:21:56.606Z,100337.84
2023-04-14T03:27:04.738Z,100344.06
2023-04-14T03:32:08.306Z,100345.78
2023-04-14T03:37:15.591Z,100350.06
2023-04-14T03:42:19.929Z,100364.69
2023-04-14T03:47:22.228Z,100360.38
2023-04-14T03:52:29.644Z,100358.53
2023-04-14T03:57:31.665Z,100366.41
2023-04-14T04:02:34.936Z,100366.28
2023-04-14T04:07:39.989Z,100374.25
2023-04-14T04:12:43.715Z,100380.09
2023-04-14T04:17:49.204Z,100371.84
2023-04-14T04:22:54.770Z,100373.59
2023-04-14T04:27:56.586Z,100369.75
2023-04-14T04:33:01.938Z,100356.03
2023-04-14T04:38:03.751Z,100361.88
2023-04-14T04:43:05.933Z,100379.84
2023-04-14T04:48:08.094Z,100377.25
2023-04-14T04:53:09.906Z,100382.69
2023-04-14T04:58:11.540Z,100386.00
2023-04-14T05:03:13.166Z,100395.91
2023-04-14T05:08:15.413Z,100402.09
2023-04-14T05:13:17.047Z,100403.75
2023-04-14T05:18:18.970Z,100396.81
2023-04-14T05:23:20.499Z,100390.16
2023-04-14T05:28:22.041Z,100403.66
2023-04-14T05:33:23.675Z,100409.25
2023-04-14T05:38:25.302Z,100406.69
2023-04-14T05:43:26.809Z,100406.69
2023-04-14T05:48:28.373Z,100406.19
2023-04-14T05:53:29.910Z,100408.50
2023-04-14T05:58:31.530Z,100406.16
2023-04-14T06:03:33.276Z,100415.13
2023-04-14T06:08:34.964Z,100414.31
2023-04-14T06:13:36.722Z,100405.69
2023-04-14T06:18:38.281Z,100405.75
2023-04-14T06:23:39.844Z,100404.69
2023-04-14T06:28:43.725Z,100408.56
2023-04-14T06:33:45.596Z,100412.19
2023-04-14T06:38:47.133Z,100405.50
2023-04-14T06:43:48.708Z,100401.84
2023-04-14T06:48:50.273Z,100396.25
2023-04-14T06:53:51.806Z,100397.63
2023-04-14T06:58:53.479Z,100404.47
2023-04-14T07:03:55.108Z,100385.47
2023-04-14T07:08:56.704Z,100386.81
2023-04-14T07:13:58.422Z,100380.78
2023-04-14T07:18:59.960Z,100374.72
2023-04-14T07:24:02.044Z,100377.78
2023-04-14T07:29:03.931Z,100380.66
2023-04-14T07:34:06.009Z,100367.19
2023-04-14T07:39:07.581Z,100365.97
2023-04-14T07:44:09.288Z,100358.94
2023-04-14T07:49:10.832Z,100358.94
2023-04-14T07:54:12.308Z,100369.19
2023-04-14T07:59:13.887Z,100365.22
2023-04-14T08:04:15.548Z,100377.16
2023-04-14T08:09:17.517Z,100379.81
2023-04-14T08:14:19.112Z,100374.56
2023-04-14T08:19:20.684Z,100372.34
2023-04-14T08:24:22.337Z,100367.44
2023-04-14T08:29:27.115Z,100368.78
2023-04-14T08:34:28.961Z,100371.94
2023-04-14T08:39:30.640Z,100375.59
2023-04-14T08:44:32.400Z,100374.13
2023-04-14T08:49:42.097Z,100357.09
2023-04-14T08:54:47.474Z,100360.56
2023-04-14T08:59:49.946Z,100360.84
2023-04-14T09:04:52.966Z,100354.97
2023-04-14T09:09:55.761Z,100337.34
2023-04-14T09:14:58.995Z,100340.34
2023-04-14T09:20:36.397Z,100334.53
2023-04-14T09:25:22.329Z,100330.22
2023-04-14T09:30:24.075Z,100330.66
2023-04-14T09:35:44.094Z,100341.03
2023-04-14T09:40:45.679Z,100325.16
2023-04-14T09:45:47.253Z,100333.41
2023-04-14T09:51:06.704Z,100324.91
2023-04-14T09:56:12.437Z,100326.38
2023-04-14T10:01:18.388Z,100325.00
2023-04-14T10:06:21.820Z,100310.69
2023-04-14T10:11:26.108Z,100306.56
2023-04-14T10:16:27.764Z,100294.91
2023-04-14T10:21:29.666Z,100287.28
2023-04-14T10:26:31.702Z,100277.16
2023-04-14T10:31:37.684Z,100273.13
2023-04-14T10:36:39.900Z,100267.38
2023-04-14T10:41:44.490Z,100265.75
2023-04-14T10:46:46.336Z,100253.78
2023-04-14T10:51:49.780Z,100249.84
2023-04-14T10:57:12.716Z,100241.56
2023-04-14T11:02:34.176Z,100234.56
2023-04-14T11:07:46.421Z,100241.00
2023-04-14T11:12:54.325Z,100240.69
2023-04-14T11:18:11.706Z,100219.50
2023-04-14T11:23:14.579Z,100213.16
2023-04-14T11:28:16.110Z,100209.84
2023-04-14T11:33:19.055Z,100207.00
2023-04-14T11:38:20.842Z,100218.38
2023-04-14T11:43:23.612Z,100202.88
2023-04-14T11:48:27.996Z,100182.09
2023-04-14T11:53:29.670Z,100193.97
2023-04-14T11:58:31.381Z,100205.03
2023-04-14T12:03:33.213Z,100190.91
2023-04-14T12:08:34.868Z,100176.59
2023-04-14T12:13:40.675Z,100172.41
2023-04-14T12:18:43.475Z,100169.19
2023-04-14T12:23:46.787Z,100172.75
2023-04-14T12:28:55.994Z,100161.28
2023-04-14T12:34:04.151Z,100163.44
2023-04-14T12:39:08.062Z,100150.50
2023-04-14T12:44:17.358Z,100156.53
2023-04-14T12:49:30.871Z,100141.59
2023-04-14T12:54:51.167Z,100148.53
2023-04-14T12:59:52.802Z,100125.56
2023-04-14T13:04:54.538Z,100118.66
2023-04-14T13:09:56.924Z,100119.78
2023-04-14T13:14:58.656Z,100103.41
2023-04-14T13:20:00.759Z,100095.63
2023-04-14T13:25:02.307Z,100092.28
2023-04-14T13:30:04.340Z,100089.22
2023-04-14T13:35:06.248Z,100088.50
2023-04-14T13:40:08.701Z,100088.47
2023-04-14T13:45:10.357Z,100085.38
2023-04-14T13:50:11.948Z,100088.19
2023-04-14T13:55:13.876Z,100079.78
2023-04-14T14:00:15.737Z,100070.19
2023-04-14T14:05:17.372Z,100074.59
2023-04-14T14:10:19.056Z,100063.81
2023-04-14T14:15:20.611Z,100063.75
2023-04-14T14:20:22.118Z,100059.94
2023-04-14T14:25:23.769Z,100056.19
2023-04-14T14:30:25.523Z,100051.09
2023-04-14T14:35:27.070Z,100051.38
2023-04-14T14:40:29.287Z,100049.53
2023-04-14T14:45:33.041Z,100044.38
2023-04-14T14:50:34.917Z,100046.72
2023-04-14T14:55:36.380Z,100037.69
2023-04-14T15:00:38.997Z,100045.69
2023-04-14T15:05:40.596Z,100042.69
2023-04-14T15:10:42.230Z,100034.63
2023-04-14T15:15:43.788Z,100029.13
2023-04-14T15:20:46.868Z,100026.50
2023-04-14T15:25:48.489Z,100024.72
2023-04-14T15:30:50.017Z,100028.97
2023-04-14T15:35:51.704Z,100024.56
2023-04-14T15:40:53.956Z,100016.94
2023-04-14T15:45:55.571Z,100020.34
2023-04-14T15:50:57.169Z,100016.50
2023-04-14T15:55:58.814Z,100018.13
2023-04-14T16:01:00.414Z,100015.16
2023-04-14T16:06:02.853Z,100013.88
2023-04-14T16:11:04.435Z,100018.75
2023-04-14T16:16:06.353Z,100012.09
2023-04-14T16:21:08.411Z,100011.84
2023-04-14T16:26:10.048Z,100015.31
2023-04-14T16:31:11.808Z,100014.81
2023-04-14T16:36:13.351Z,100009.47
2023-04-14T16:41:14.867Z,100005.59
2023-04-14T16:46:16.425Z,100006.50
2023-04-14T16:51:18.125Z,100000.44
2023-04-14T16:56:19.639Z,100003.66
2023-04-14T17:01:21.320Z,99998.75
2023-04-14T17:06:23.163Z,99997.69
2023-04-14T17:11:24.737Z,100000.19
2023-04-14T17:16:26.498Z,99996.91
2023-04-14T17:21:28.319Z,99981.75
2023-04-14T17:26:29.846Z,99985.22
2023-04-14T17:31:31.584Z,99992.25
2023-04-14T17:36:33.827Z,99989.56
2023-04-14T17:41:35.680Z,99988.09
2023-04-14T17:46:37.169Z,99991.25
2023-04-14T17:51:38.878Z,99990.31
2023-04-14T17:56:40.482Z,99992.31
2023-04-14T18:01:42.239Z,100004.50
2023-04-14T18:06:44.066Z,99997.16
2023-04-14T18:11:45.579Z,100005.31
2023-04-14T18:16:47.257Z,100011.72
2023-04-14T18:21:48.890Z,100012.13
2023-04-14T18:26:50.410Z,100012.03
2023-04-14T18:31:51.949Z,100017.75
2023-04-14T18:36:53.597Z,100019.44
2023-04-14T18:41:55.104Z,100023.25
2023-04-14T18:46:56.655Z,100030.56
2023-04-14T18:51:58.284Z,100033.00
2023-04-14T18:57:00.527Z,100046.41
2023-04-14T19:02:02.185Z,100051.56
2023-04-14T19:07:03.774Z,100048.31
2023-04-14T19:12:05.461Z,100051.38
2023-04-14T19:17:07.633Z,100052.78
2023-04-14T19:22:09.297Z,100057.03
2023-04-14T19:27:10.881Z,100051.56
2023-04-14T19:32:12.439Z,100058.00
2023-04-14T19:37:14.055Z,100054.78
2023-04-14T19:42:15.640Z,100054.94
2023-04-14T19:47:17.390Z,100052.06
2023-04-14T19:52:18.889Z,100061.13
2023-04-14T19:57:20.616Z,100064.59
2023-04-14T20:02:22.302Z,100051.50
2023-04-14T20:07:29.660Z,100058.84
2023-04-14T20:12:31.237Z,100061.97
2023-04-14T20:17:32.856Z,100075.13
2023-04-14T20:22:34.476Z,100083.66
2023-04-14T20:27:36.191Z,100085.06
2023-04-14T20:32:37.926Z,100088.06
2023-04-14T20:37:39.576Z,100083.66
2023-04-14T20:42:41.135Z,100080.78
2023-04-14T20:47:42.985Z,100076.75
2023-04-14T20:52:45.152Z,100080.09
2023-04-14T20:57:47.514Z,100081.38
2023-04-14T21:02:49.259Z,100085.19
2023-04-14T21:07:50.858Z,100089.00
2023-04-14T21:15:30.387Z,100090.78
2023-04-14T21:18:13.906Z,100083.34
2023-04-14T21:23:15.577Z,100077.50
2023-04-14T21:28:17.253Z,100089.13
2023-04-14T21:33:18.809Z,100084.03
2023-04-14T21:38:20.444Z,100087.19
2023-04-14T21:43:22.073Z,100093.56
2023-04-14T21:48:23.735Z,100092.94
2023-04-14T21:53:25.290Z,100089.78
2023-04-14T21:58:26.932Z,100087.91
2023-04-14T22:03:28.770Z,100084.84
2023-04-14T22:08:30.354Z,100087.47
2023-04-14T22:13:31.858Z,100091.13
2023-04-14T22:18:33.456Z,100088.66
2023-04-14T22:23:35.069Z,100087.22
2023-04-14T22:28:37.154Z,100093.97
2023-04-14T22:33:39.081Z,100083.97
2023-04-14T22:38:40.642Z,100089.94
2023-04-14T22:43:42.577Z,100096.16
2023-04-14T22:48:44.476Z,100099.31
2023-04-14T22:53:46.086Z,100091.00
2023-04-14T22:58:47.611Z,100090.72
2023-04-14T23:03:49.278Z,100092.28
2023-04-14T23:08:51.521Z,100099.50
2023-04-14T23:13:53.034Z,100105.06
2023-04-14T23:18:54.570Z,100105.50
2023-04-14T23:23:56.097Z,100116.69
2023-04-14T23:28:57.618Z,100107.91
2023-04-14T23:33:59.168Z,100116.31
2023-04-14T23:39:01.019Z,100105.50
2023-04-14T23:44:02.687Z,100108.03
2023-04-14T23:49:24.149Z,100106.34
2023-04-14T23:54:25.839Z,100103.09
2023-04-14T23:59:27.378Z,100105.63
